createdAt,value
2023-02-08T00:00:41.780Z,94.09
2023-02-08T00:02:43.290Z,93.87
2023-02-08T00:04:45.299Z,93.73
2023-02-08T00:08:48.485Z,93.46
2023-02-08T00:10:49.880Z,93.36
2023-02-08T00:12:51.978Z,93.43
2023-02-08T00:14:53.755Z,93.75
2023-02-08T00:16:55.537Z,93.91
2023-02-08T00:18:57.307Z,94.21
2023-02-08T00:20:58.858Z,94.31
2023-02-08T00:23:00.120Z,94.32
2023-02-08T00:25:01.475Z,94.28
2023-02-08T00:27:02.681Z,94.24
2023-02-08T00:29:04.106Z,94.35
2023-02-08T00:31:06.138Z,94.46
2023-02-08T00:33:07.596Z,94.45
2023-02-08T00:35:08.825Z,94.3
2023-02-08T00:37:10.590Z,94.18
2023-02-08T00:41:13.877Z,94.2
2023-02-08T00:43:15.808Z,94.06
2023-02-08T00:45:17.686Z,93.86
2023-02-08T00:47:19.747Z,93.78
2023-02-08T00:49:21.588Z,93.89
2023-02-08T00:51:23.140Z,93.98
2023-02-08T00:53:25.240Z,94.14
2023-02-08T00:55:26.702Z,94.32
2023-02-08T00:57:28.450Z,94.41
2023-02-08T00:59:30.603Z,94.38
2023-02-08T01:01:32.538Z,94.32
2023-02-08T01:03:34.198Z,94.33
2023-02-08T01:05:36.103Z,94.22
2023-02-08T01:07:37.666Z,94.1
2023-02-08T01:09:39.449Z,94.28
2023-02-08T01:11:40.602Z,94.64
2023-02-08T01:13:42.650Z,94.67
2023-02-08T01:15:43.975Z,94.62
2023-02-08T01:17:45.579Z,94.9
2023-02-08T01:19:46.958Z,95
2023-02-08T01:23:50.240Z,94.96
2023-02-08T01:25:52.220Z,94.77
2023-02-08T01:27:53.416Z,94.68
2023-02-08T01:29:55.394Z,94.65
2023-02-08T01:31:57.416Z,94.61
2023-02-08T01:33:59.452Z,94.54
2023-02-08T01:36:01.598Z,94.46
2023-02-08T01:38:02.757Z,94.32
2023-02-08T01:40:04.209Z,94.26
2023-02-08T01:42:05.849Z,94.29
2023-02-08T01:44:07.216Z,94.37
2023-02-08T01:46:08.644Z,94.39
2023-02-08T01:48:09.792Z,94.4
2023-02-08T01:50:11.583Z,94.51
2023-02-08T01:52:12.845Z,94.6
2023-02-08T01:54:14.996Z,94.69
2023-02-08T01:56:16.715Z,94.59
2023-02-08T01:58:18.071Z,94.49
2023-02-08T02:00:19.783Z,94.54
2023-02-08T02:02:21.091Z,94.78
2023-02-08T02:06:25.158Z,94.72
2023-02-08T02:08:26.952Z,94.82
2023-02-08T02:10:28.892Z,94.87
2023-02-08T02:12:30.367Z,94.86
2023-02-08T02:14:32.042Z,94.95
2023-02-08T02:16:33.873Z,95.03
2023-02-08T02:18:35.925Z,95.16
2023-02-08T02:20:38.103Z,95.21
2023-02-08T02:22:38.805Z,95.16
2023-02-08T02:24:40.053Z,95.08
2023-02-08T02:26:41.908Z,95.04
2023-02-08T02:28:43.776Z,95.06
2023-02-08T02:30:45.364Z,95.02
2023-02-08T02:32:46.608Z,94.92
2023-02-08T02:34:48.558Z,94.84
2023-02-08T02:36:50.579Z,94.71
2023-02-08T02:38:52.470Z,94.66
2023-02-08T02:40:54.527Z,94.76
2023-02-08T02:42:56.020Z,94.73
2023-02-08T02:44:57.784Z,94.68
2023-02-08T02:49:01.610Z,94.56
2023-02-08T02:51:03.481Z,94.55
2023-02-08T02:53:04.663Z,94.54
2023-02-08T02:55:05.839Z,94.46
2023-02-08T02:57:07.582Z,94.49
2023-02-08T02:59:09.629Z,94.38
2023-02-08T03:01:11.511Z,94.34
2023-02-08T03:03:12.926Z,94.29
2023-02-08T03:05:14.819Z,94.32
2023-02-08T03:07:16.608Z,94.44
2023-02-08T03:09:18.565Z,94.6
2023-02-08T03:11:20.645Z,94.43
2023-02-08T03:13:22.256Z,94.38
2023-02-08T03:15:24.268Z,94.27
2023-02-08T03:17:25.694Z,94.27
2023-02-08T03:19:27.749Z,94.21
2023-02-08T03:21:28.932Z,94.18
2023-02-08T03:23:30.829Z,94.25
2023-02-08T03:25:32.047Z,94.55
2023-02-08T03:27:33.312Z,94.76
2023-02-08T03:31:36.851Z,94.75
2023-02-08T03:33:38.061Z,94.66
2023-02-08T03:35:39.771Z,94.63
2023-02-08T03:37:41.042Z,94.66
2023-02-08T03:39:42.519Z,94.54
2023-02-08T03:40:26.591Z,94.53
2023-02-08T03:42:28.627Z,94.63
2023-02-08T03:44:30.061Z,94.76
2023-02-08T03:46:31.518Z,94.7
2023-02-08T03:48:33.559Z,94.66
2023-02-08T03:50:35.271Z,94.61
2023-02-08T03:52:37.278Z,94.63
2023-02-08T03:54:38.844Z,94.7
2023-02-08T03:56:40.715Z,94.69
2023-02-08T03:58:42.137Z,94.62
2023-02-08T04:00:44.013Z,94.63
2023-02-08T04:02:45.912Z,94.6
2023-02-08T04:04:47.615Z,94.68
2023-02-08T04:08:50.298Z,94.86
2023-02-08T04:10:52.388Z,94.85
2023-02-08T04:12:54.050Z,94.75
2023-02-08T04:14:55.575Z,94.7
2023-02-08T04:16:57.317Z,94.76
2023-02-08T04:18:58.734Z,94.92
2023-02-08T04:21:00.251Z,94.93
2023-02-08T04:23:02.354Z,94.89
2023-02-08T04:25:04.082Z,94.88
2023-02-08T04:27:06.255Z,94.75
2023-02-08T04:29:07.846Z,94.69
2023-02-08T04:31:09.876Z,94.35
2023-02-08T04:33:11.907Z,94.22
2023-02-08T04:35:13.821Z,94.19
2023-02-08T04:37:25.129Z,94.19
2023-02-08T04:39:16.362Z,94.18
2023-02-08T04:41:18.026Z,94.17
2023-02-08T04:43:19.543Z,94.31
2023-02-08T04:45:21.534Z,94.38
2023-02-08T04:47:23.014Z,94.46
2023-02-08T04:51:26.682Z,94.84
2023-02-08T04:53:28.634Z,95.06
2023-02-08T04:55:30.622Z,95.02
2023-02-08T04:57:32.438Z,94.93
2023-02-08T04:59:33.799Z,94.79
2023-02-08T05:01:35.434Z,94.68
2023-02-08T05:03:36.615Z,94.67
2023-02-08T05:05:38.334Z,94.54
2023-02-08T05:07:39.658Z,94.45
2023-02-08T05:09:41.677Z,94.5
2023-02-08T05:11:43.533Z,94.51
2023-02-08T05:13:45.232Z,94.76
2023-02-08T05:15:46.680Z,95.12
2023-02-08T05:17:48.220Z,95.08
2023-02-08T05:19:50.397Z,94.95
2023-02-08T05:21:51.644Z,95
2023-02-08T05:23:53.472Z,95.01
2023-02-08T05:25:55.188Z,94.99
2023-02-08T05:27:56.773Z,95.02
2023-02-08T05:29:59.046Z,94.99
2023-02-08T05:32:00.061Z,95.03
2023-02-08T05:34:01.553Z,94.96
2023-02-08T05:36:05.095Z,94.81
2023-02-08T05:38:04.741Z,94.74
2023-02-08T05:40:06.785Z,94.75
2023-02-08T05:42:08.415Z,94.66
2023-02-08T05:44:09.995Z,94.54
2023-02-08T05:46:11.405Z,94.52
2023-02-08T05:48:12.714Z,94.55
2023-02-08T05:50:14.366Z,94.49
2023-02-08T05:52:15.669Z,94.38
2023-02-08T05:54:17.854Z,94.24
2023-02-08T05:56:19.220Z,94.38
2023-02-08T05:58:20.586Z,94.52
2023-02-08T06:00:22.380Z,94.39
2023-02-08T06:02:24.081Z,94.43
2023-02-08T06:06:27.642Z,94.36
2023-02-08T06:08:29.398Z,94.27
2023-02-08T06:10:31.412Z,94.25
2023-02-08T06:12:33.309Z,94.32
2023-02-08T06:16:36.921Z,94.65
2023-02-08T06:18:38.100Z,94.63
2023-02-08T06:20:39.675Z,94.51
2023-02-08T06:22:41.661Z,94.36
2023-02-08T06:24:43.069Z,94.28
2023-02-08T06:26:44.921Z,94.23
2023-02-08T06:28:47.016Z,94.18
2023-02-08T06:30:49.166Z,94.18
2023-02-08T06:32:50.424Z,94.17
2023-02-08T06:34:52.550Z,94.15
2023-02-08T06:36:54.760Z,94.16
2023-02-08T06:38:56.270Z,93.98
2023-02-08T06:40:57.781Z,93.98
2023-02-08T06:42:59.174Z,93.87
2023-02-08T06:45:01.299Z,93.91
2023-02-08T06:47:02.685Z,93.92
2023-02-08T06:49:03.929Z,93.97
2023-02-08T06:51:05.270Z,93.9
2023-02-08T06:53:06.584Z,93.98
2023-02-08T06:55:08.616Z,93.94
2023-02-08T06:59:12.362Z,93.89
2023-02-08T07:01:14.545Z,93.78
2023-02-08T07:03:15.770Z,93.77
2023-02-08T07:05:17.166Z,93.87
2023-02-08T07:07:19.118Z,93.91
2023-02-08T07:09:20.621Z,94.01
2023-02-08T07:11:21.931Z,94.07
2023-02-08T07:13:24.011Z,94.04
2023-02-08T07:15:25.776Z,93.92
2023-02-08T07:17:27.719Z,93.95
2023-02-08T07:19:29.307Z,94.23
2023-02-08T07:21:31.223Z,94.17
2023-02-08T07:23:32.810Z,94.04
2023-02-08T07:25:34.869Z,94.17
2023-02-08T07:27:36.121Z,94.29
2023-02-08T07:29:37.524Z,94.25
2023-02-08T07:31:38.808Z,94.25
2023-02-08T07:33:40.711Z,94.21
2023-02-08T07:35:42.567Z,94.21
2023-02-08T07:37:44.461Z,94.36
2023-02-08T07:41:48.311Z,95.18
2023-02-08T07:43:49.570Z,95.6
2023-02-08T07:45:51.219Z,96
2023-02-08T07:47:52.479Z,96.23
2023-02-08T07:49:53.745Z,96.51
2023-02-08T07:51:55.318Z,96.32
2023-02-08T07:53:56.746Z,96.15
2023-02-08T07:55:58.627Z,94.99
2023-02-08T07:58:00.547Z,93.8
2023-02-08T08:00:01.823Z,94
2023-02-08T08:02:03.012Z,94.05
2023-02-08T08:04:04.589Z,93.68
2023-02-08T08:06:05.802Z,93.36
2023-02-08T08:08:07.341Z,91.78
2023-02-08T08:10:08.905Z,91.74
2023-02-08T08:12:09.967Z,90.18
2023-02-08T08:14:12.001Z,88.7
2023-02-08T08:16:13.192Z,88.74
2023-02-08T08:18:14.267Z,88.88
2023-02-08T08:20:15.547Z,87.33
2023-02-08T08:24:18.334Z,87.33
2023-02-08T08:26:19.385Z,88.09
2023-02-08T08:28:21.009Z,88.42
2023-02-08T08:30:22.337Z,86.8
2023-02-08T08:32:23.880Z,85.99
2023-02-08T08:34:25.582Z,85.27
2023-02-08T08:36:26.708Z,84.59
2023-02-08T08:38:27.680Z,86.2
2023-02-08T08:40:28.959Z,85.57
2023-02-08T08:42:30.420Z,87.18
2023-02-08T08:44:31.602Z,86.96
2023-02-08T08:46:32.731Z,86.69
2023-02-08T08:48:34.399Z,87.05
2023-02-08T08:50:36.122Z,86.69
2023-02-08T08:52:37.713Z,86.56
2023-02-08T08:56:40.715Z,84.4
2023-02-08T08:58:42.596Z,85.21
2023-02-08T09:00:44.158Z,86.94
2023-02-08T09:02:45.127Z,84.97
2023-02-08T09:06:47.560Z,85.87
2023-02-08T09:08:51.473Z,85.65
2023-02-08T09:10:51.414Z,84.17
2023-02-08T09:12:53.346Z,83.88
2023-02-08T09:14:54.890Z,82.87
2023-02-08T09:16:56.204Z,84.04
2023-02-08T09:18:57.392Z,79.48
2023-02-08T09:20:59.079Z,78.61
2023-02-08T09:23:00.277Z,77.57
2023-02-08T09:25:01.667Z,75.96
2023-02-08T09:27:03.296Z,76.52
2023-02-08T09:29:05.243Z,76.65
2023-02-08T09:31:07.164Z,75.7
2023-02-08T09:33:08.864Z,78.76
2023-02-08T09:35:09.920Z,78.58
2023-02-08T09:37:10.975Z,77.35
2023-02-08T09:39:12.217Z,78.1
2023-02-08T09:41:13.463Z,77.8
2023-02-08T09:43:14.792Z,76.73
2023-02-08T09:45:15.894Z,75.18
2023-02-08T09:47:17.652Z,75.67
2023-02-08T09:49:18.699Z,75.85
2023-02-08T09:51:20.124Z,73.4
2023-02-08T09:55:23.548Z,72.06
2023-02-08T09:57:24.765Z,73.81
2023-02-08T09:59:26.623Z,72.12
2023-02-08T10:01:28.522Z,71.6
2023-02-08T10:05:31.158Z,69.2
2023-02-08T10:07:32.590Z,70.66
2023-02-08T10:09:34.392Z,71.17
2023-02-08T10:11:35.954Z,72.44
2023-02-08T10:13:41.527Z,69.97
2023-02-08T10:15:39.385Z,70.22
2023-02-08T10:17:40.925Z,72.2
2023-02-08T10:19:42.147Z,69.22
2023-02-08T10:21:43.617Z,70.27
2023-02-08T10:23:45.272Z,67.82
2023-02-08T10:25:47.030Z,67.94
2023-02-08T10:28:32.513Z,68.5
2023-02-08T10:30:33.577Z,68.45
2023-02-08T10:32:34.944Z,68.79
2023-02-08T10:34:35.920Z,67.35
2023-02-08T10:36:37.697Z,67.31
2023-02-08T10:38:46.254Z,67.45
2023-02-08T10:42:42.434Z,66.83
2023-02-08T10:44:43.613Z,67.39
2023-02-08T10:46:44.727Z,66.08
2023-02-08T10:48:46.410Z,65.23
2023-02-08T10:50:47.916Z,64.66
2023-02-08T10:52:49.074Z,65.89
2023-02-08T10:54:50.448Z,63.84
2023-02-08T10:56:52.623Z,64.11
2023-02-08T10:58:54.277Z,63.38
2023-02-08T11:00:55.681Z,62.74
2023-02-08T11:02:57.217Z,62.72
2023-02-08T11:04:58.520Z,63.79
2023-02-08T11:07:00.042Z,64.55
2023-02-08T11:09:01.847Z,62.89
2023-02-08T11:11:03.242Z,64.27
2023-02-08T11:13:05.009Z,63.92
2023-02-08T11:15:14.292Z,64.72
2023-02-08T11:17:08.197Z,64.14
2023-02-08T11:19:09.246Z,62.13
2023-02-08T11:21:10.449Z,64.76
2023-02-08T11:25:13.329Z,63.88
2023-02-08T11:27:14.522Z,62.4
2023-02-08T11:29:15.622Z,62.61
2023-02-08T11:31:16.807Z,61.82
2023-02-08T11:33:18.216Z,61.49
2023-02-08T11:35:19.394Z,60.9
2023-02-08T11:37:21.268Z,62.37
2023-02-08T11:39:22.921Z,61
2023-02-08T11:41:24.272Z,62.9
2023-02-08T11:43:25.355Z,62.32
2023-02-08T11:45:27.149Z,60.15
2023-02-08T11:47:28.854Z,60.42
2023-02-08T11:49:30.739Z,60.92
2023-02-08T11:51:32.051Z,62.16
2023-02-08T11:53:33.619Z,60.37
2023-02-08T11:57:36.938Z,58.49
2023-02-08T11:59:38.817Z,60.83
2023-02-08T12:01:40.721Z,61.12
2023-02-08T12:03:42.183Z,59.38
2023-02-08T12:07:45.255Z,60.18
2023-02-08T12:09:46.360Z,59.07
2023-02-08T12:11:47.829Z,56.41
2023-02-08T12:13:49.736Z,60.07
2023-02-08T12:15:58.437Z,58.47
2023-02-08T12:17:52.640Z,56.25
2023-02-08T12:19:54.508Z,55.99
2023-02-08T12:21:55.496Z,56.76
2023-02-08T12:23:57.025Z,58.73
2023-02-08T12:25:58.300Z,58.12
2023-02-08T12:27:59.523Z,58.01
2023-02-08T12:30:00.558Z,57.72
2023-02-08T12:32:02.134Z,55.19
2023-02-08T12:34:03.513Z,57.41
2023-02-08T12:36:05.770Z,57.12
2023-02-08T12:40:08.902Z,56.36
2023-02-08T12:42:09.896Z,57.19
2023-02-08T12:44:11.666Z,56.21
2023-02-08T12:46:13.083Z,56.05
2023-02-08T12:50:16.139Z,55.72
2023-02-08T12:52:17.957Z,55.82
2023-02-08T12:54:19.409Z,55.13
2023-02-08T12:56:21.357Z,55.76
2023-02-08T12:58:23.027Z,56.35
2023-02-08T13:00:24.889Z,57.03
2023-02-08T13:02:26.439Z,56.15
2023-02-08T13:04:27.525Z,56.49
2023-02-08T13:06:29.006Z,56.9
2023-02-08T13:08:30.372Z,56.54
2023-02-08T13:10:31.660Z,57.52
2023-02-08T13:12:33.537Z,59.36
2023-02-08T13:14:34.828Z,56.42
2023-02-08T13:16:35.961Z,57.75
2023-02-08T13:18:37.020Z,59.56
2023-02-08T13:22:39.837Z,58.27
2023-02-08T13:24:41.390Z,57.95
2023-02-08T13:26:43.201Z,59.5
2023-02-08T13:28:44.748Z,58.09
2023-02-08T13:32:47.690Z,59.32
2023-02-08T13:34:49.124Z,58.08
2023-02-08T13:36:50.610Z,58.11
2023-02-08T13:38:52.287Z,59.62
2023-02-08T13:40:53.560Z,58.14
2023-02-08T13:42:55.072Z,58.2
2023-02-08T13:44:57.017Z,58.15
2023-02-08T13:46:58.109Z,56.82
2023-02-08T13:48:59.132Z,58.73
2023-02-08T13:51:00.982Z,57.5
2023-02-08T13:53:02.198Z,58.5
2023-02-08T13:55:03.349Z,58.67
2023-02-08T13:57:04.545Z,58.06
2023-02-08T13:59:05.853Z,59.45
2023-02-08T14:01:07.516Z,57.55
2023-02-08T14:03:09.280Z,57.62
2023-02-08T14:05:10.440Z,58.23
2023-02-08T14:07:12.295Z,59.31
2023-02-08T14:09:14.273Z,58.77
2023-02-08T14:11:15.322Z,58.1
2023-02-08T14:13:16.283Z,58.01
2023-02-08T14:15:17.990Z,58.45
2023-02-08T14:17:19.626Z,58.55
2023-02-08T14:21:22.582Z,58.24
2023-02-08T14:23:24.418Z,56.82
2023-02-08T14:25:26.049Z,57.13
2023-02-08T14:27:27.977Z,58.13
2023-02-08T14:31:30.940Z,56.83
2023-02-08T14:33:32.069Z,56.87
2023-02-08T14:35:33.085Z,55.82
2023-02-08T14:37:34.829Z,56.84
2023-02-08T14:39:36.504Z,55.88
2023-02-08T14:41:37.806Z,55.68
2023-02-08T14:43:39.049Z,55.48
2023-02-08T14:45:41.195Z,56.78
2023-02-08T14:47:42.684Z,55.5
2023-02-08T14:49:44.357Z,54.79
2023-02-08T14:51:45.510Z,56.02
2023-02-08T14:53:47.258Z,53.66
2023-02-08T14:55:48.330Z,54.41
2023-02-08T14:57:49.788Z,54.02
2023-02-08T14:59:51.453Z,54.39
2023-02-08T15:01:52.760Z,52.94
2023-02-08T15:03:54.133Z,54.01
2023-02-08T15:05:55.615Z,53.43
2023-02-08T15:07:57.493Z,53.3
2023-02-08T15:09:58.926Z,53.3
2023-02-08T15:14:01.339Z,52.58
2023-02-08T15:16:02.733Z,52.28
2023-02-08T15:18:03.830Z,52.11
2023-02-08T15:20:05.465Z,52.68
2023-02-08T15:22:06.579Z,53.22
2023-02-08T15:24:08.490Z,53.1
2023-02-08T15:26:09.847Z,53.36
2023-02-08T15:28:11.773Z,54.06
2023-02-08T15:30:12.805Z,53.85
2023-02-08T15:32:14.771Z,53.34
2023-02-08T15:34:16.828Z,53.67
2023-02-08T15:36:18.521Z,53.97
2023-02-08T15:38:20.031Z,54.7
2023-02-08T15:40:21.421Z,55.44
2023-02-08T15:42:22.854Z,55.21
2023-02-08T15:46:25.091Z,55.23
2023-02-08T15:48:26.154Z,54.78
2023-02-08T15:50:27.640Z,54.95
2023-02-08T15:52:28.859Z,55.05
2023-02-08T15:56:37.044Z,55.55
2023-02-08T15:58:33.613Z,55.96
2023-02-08T16:00:34.765Z,57.65
2023-02-08T16:02:36.329Z,56.55
2023-02-08T16:04:38.108Z,57.61
2023-02-08T16:06:39.440Z,57.83
2023-02-08T16:08:40.404Z,58.29
2023-02-08T16:10:42.486Z,59.03
2023-02-08T16:12:43.779Z,56.95
2023-02-08T16:14:52.352Z,58.59
2023-02-08T16:16:47.708Z,60.09
2023-02-08T16:18:49.138Z,60.39
2023-02-08T16:20:50.636Z,59.34
2023-02-08T16:22:51.808Z,58.35
2023-02-08T16:24:53.110Z,58.76
2023-02-08T16:26:54.315Z,59.28
2023-02-08T16:28:55.729Z,59.87
2023-02-08T16:30:56.833Z,60.96
2023-02-08T16:32:58.677Z,61.54
2023-02-08T16:35:00.029Z,62.42
2023-02-08T16:37:01.419Z,63.32
2023-02-08T16:39:03.298Z,64.32
2023-02-08T16:41:04.466Z,64.63
2023-02-08T16:45:07.620Z,66.05
2023-02-08T16:47:09.262Z,66.17
2023-02-08T16:49:10.347Z,66.4
2023-02-08T16:51:12.386Z,66.87
2023-02-08T16:55:15.521Z,69.59
2023-02-08T16:57:16.637Z,68.31
2023-02-08T16:59:18.265Z,68.03
2023-02-08T17:01:19.510Z,68.06
2023-02-08T17:03:21.243Z,68.15
2023-02-08T17:05:22.968Z,69.03
2023-02-08T17:07:24.651Z,70.12
2023-02-08T17:09:25.931Z,71.41
2023-02-08T17:11:27.321Z,71.64
2023-02-08T17:12:21.692Z,71.63
2023-02-08T17:14:12.836Z,71.46
2023-02-08T17:16:14.370Z,71.19
2023-02-08T17:18:15.687Z,71.49
2023-02-08T17:22:19.032Z,73.49
2023-02-08T17:24:20.672Z,74.94
2023-02-08T17:26:22.429Z,75.04
2023-02-08T17:28:23.703Z,74.9
2023-02-08T17:32:26.498Z,75.32
2023-02-08T17:34:28.014Z,75.37
2023-02-08T17:36:29.609Z,75.61
2023-02-08T17:38:30.812Z,76.11
2023-02-08T17:40:31.951Z,76.15
2023-02-08T17:42:33.768Z,75.08
2023-02-08T17:44:35.185Z,74.57
2023-02-08T17:46:36.881Z,71.92
2023-02-08T17:48:38.715Z,69.88
2023-02-08T17:50:40.527Z,71.13
2023-02-08T17:52:42.276Z,71.54
2023-02-08T17:54:43.529Z,72.82
2023-02-08T17:56:45.385Z,74.8
2023-02-08T17:58:47.724Z,75.17
2023-02-08T18:00:48.220Z,74.96
2023-02-08T18:02:50.332Z,74.46
2023-02-08T18:04:52.023Z,74.3
2023-02-08T18:06:53.672Z,74.77
2023-02-08T18:08:55.682Z,75.71
2023-02-08T18:10:57.132Z,76.45
2023-02-08T18:15:00.026Z,74.61
2023-02-08T18:17:01.165Z,74.79
2023-02-08T18:19:03.105Z,75.38
2023-02-08T18:21:04.923Z,75.49
2023-02-08T18:23:06.410Z,75.33
2023-02-08T18:25:07.889Z,75.08
2023-02-08T18:27:09.583Z,73.99
2023-02-08T18:29:10.943Z,73.71
2023-02-08T18:31:12.608Z,74
2023-02-08T18:33:13.938Z,73.28
2023-02-08T18:37:17.015Z,73.97
2023-02-08T18:39:18.318Z,74.41
2023-02-08T18:41:19.572Z,75.8
2023-02-08T18:43:21.200Z,75.91
2023-02-08T18:47:24.882Z,76.66
2023-02-08T18:49:26.010Z,77.17
2023-02-08T18:51:27.767Z,76.02
2023-02-08T18:53:29.249Z,74.76
2023-02-08T18:55:39.423Z,73.91
2023-02-08T18:57:31.911Z,74.15
2023-02-08T18:59:33.584Z,74.32
2023-02-08T19:01:35.652Z,75.48
2023-02-08T19:03:37.140Z,74.7
2023-02-08T19:05:38.826Z,73.38
2023-02-08T19:07:40.921Z,73.03
2023-02-08T19:09:42.021Z,73.34
2023-02-08T19:11:44.122Z,74.44
2023-02-08T19:13:45.532Z,74.61
2023-02-08T19:15:46.644Z,73.77
2023-02-08T19:17:47.848Z,77.4
2023-02-08T19:19:49.635Z,78.02
2023-02-08T19:21:50.742Z,78.36
2023-02-08T19:23:52.800Z,78.41
2023-02-08T19:25:54.351Z,77.73
2023-02-08T19:29:58.538Z,77.07
2023-02-08T19:32:00.409Z,76.53
2023-02-08T19:34:02.388Z,75.86
2023-02-08T19:36:03.978Z,75.53
2023-02-08T19:38:05.976Z,75.69
2023-02-08T19:40:07.399Z,75.52
2023-02-08T19:42:08.606Z,75.58
2023-02-08T19:44:09.797Z,75.31
2023-02-08T19:46:11.360Z,75.78
2023-02-08T19:48:12.740Z,76.76
2023-02-08T19:50:13.826Z,76.85
2023-02-08T19:52:15.492Z,77.53
2023-02-08T19:54:17.182Z,77.63
2023-02-08T19:56:18.466Z,78.06
2023-02-08T19:58:20.301Z,79.15
2023-02-08T20:00:24.195Z,80.5
2023-02-08T20:02:23.249Z,81.33
2023-02-08T20:04:24.950Z,81.86
2023-02-08T20:06:26.287Z,81.88
2023-02-08T20:08:28.140Z,82.63
2023-02-08T20:12:32.297Z,83.43
2023-02-08T20:14:34.046Z,83.69
2023-02-08T20:16:36.000Z,84.06
2023-02-08T20:18:37.279Z,84.39
2023-02-08T20:20:38.449Z,83.1
2023-02-08T20:22:39.840Z,82.36
2023-02-08T20:24:41.077Z,82.46
2023-02-08T20:26:43.092Z,83.04
2023-02-08T20:28:44.531Z,83.25
2023-02-08T20:30:46.232Z,83.35
2023-02-08T20:32:47.486Z,82.6
2023-02-08T20:34:58.959Z,82.14
2023-02-08T20:37:05.554Z,82.32
2023-02-08T20:38:52.201Z,82.87
2023-02-08T20:40:53.330Z,83.07
2023-02-08T20:42:55.258Z,82.52
2023-02-08T20:44:56.869Z,82.83
2023-02-08T20:46:58.189Z,83.07
2023-02-08T20:48:59.292Z,83.06
2023-02-08T20:51:00.838Z,83.4
2023-02-08T20:53:02.805Z,83.74
2023-02-08T20:55:04.948Z,83.95
2023-02-08T20:57:06.109Z,83.5
2023-02-08T21:01:09.742Z,84.18
2023-02-08T21:03:11.800Z,83.98
2023-02-08T21:05:13.350Z,84.02
2023-02-08T21:07:14.684Z,84.14
2023-02-08T21:11:18.466Z,84.12
2023-02-08T21:13:20.447Z,83.96
2023-02-08T21:15:22.654Z,83.91
2023-02-08T21:17:24.046Z,84.04
2023-02-08T21:19:26.198Z,83.93
2023-02-08T21:21:27.064Z,83.8
2023-02-08T21:23:28.779Z,83.97
2023-02-08T21:25:30.513Z,83.97
2023-02-08T21:27:32.139Z,83.32
2023-02-08T21:29:33.414Z,83.1
2023-02-08T21:31:35.658Z,83.21
2023-02-08T21:33:36.874Z,83.12
2023-02-08T21:37:40.172Z,83.58
2023-02-08T21:39:41.838Z,83.25
2023-02-08T21:41:42.996Z,83.7
2023-02-08T21:43:44.620Z,84.24
2023-02-08T21:45:45.744Z,84.56
2023-02-08T21:47:46.957Z,84.99
2023-02-08T21:49:48.418Z,85.2
2023-02-08T21:51:50.263Z,85.1
2023-02-08T21:53:52.046Z,84.53
2023-02-08T21:55:53.744Z,85.57
2023-02-08T21:57:55.701Z,86.5
2023-02-08T21:59:56.832Z,86.72
2023-02-08T22:01:58.840Z,86.88
2023-02-08T22:04:00.833Z,87.36
2023-02-08T22:06:02.688Z,87.69
2023-02-08T22:08:04.633Z,88.26
2023-02-08T22:10:06.218Z,88.31
2023-02-08T22:12:07.396Z,88.55
2023-02-08T22:14:09.488Z,88.98
2023-02-08T22:16:11.457Z,89.25
2023-02-08T22:20:14.779Z,89.46
2023-02-08T22:22:16.169Z,89.3
2023-02-08T22:24:18.171Z,89.08
2023-02-08T22:26:19.351Z,89.21
2023-02-08T22:28:21.393Z,89.37
2023-02-08T22:30:25.125Z,89.34
2023-02-08T22:32:24.352Z,89.23
2023-02-08T22:34:25.572Z,89.39
2023-02-08T22:36:27.612Z,89.72
2023-02-08T22:38:28.910Z,89.98
2023-02-08T22:40:30.792Z,90.14
2023-02-08T22:42:32.491Z,90.19
2023-02-08T22:44:33.699Z,90.21
2023-02-08T22:46:35.347Z,90.19
2023-02-08T22:48:36.637Z,90.25
2023-02-08T22:50:38.140Z,90.3
2023-02-08T22:52:40.046Z,90.44
2023-02-08T22:54:41.853Z,90.78
2023-02-08T22:56:43.524Z,90.67
2023-02-08T22:58:45.344Z,90.5
2023-02-08T23:02:48.553Z,90.39
2023-02-08T23:04:49.997Z,90.85
2023-02-08T23:06:51.753Z,90.75
2023-02-08T23:08:53.443Z,90.39
2023-02-08T23:10:54.874Z,90.93
2023-02-08T23:12:56.016Z,90.79
2023-02-08T23:14:57.450Z,91.04
2023-02-08T23:16:59.604Z,90.85
2023-02-08T23:19:01.630Z,90.7
2023-02-08T23:21:03.756Z,90.62
2023-02-08T23:23:05.939Z,90.42
2023-02-08T23:25:07.313Z,90.28
2023-02-08T23:27:09.127Z,90.59
2023-02-08T23:29:10.621Z,90.29
2023-02-08T23:31:12.446Z,90.27
2023-02-08T23:33:14.516Z,90.55
2023-02-08T23:35:15.889Z,90.56
2023-02-08T23:37:17.509Z,90.92
2023-02-08T23:39:19.413Z,91.03
2023-02-08T23:41:20.679Z,90.2
2023-02-08T23:45:24.191Z,90.38
2023-02-08T23:47:26.255Z,90.01
2023-02-08T23:49:27.843Z,90.09
2023-02-08T23:51:29.402Z,90.47
2023-02-08T23:53:30.636Z,90.1
2023-02-08T23:55:32.360Z,90.29
2023-02-08T23:57:34.162Z,90.63
2023-02-08T23:58:18.216Z,90.69
